createdAt,value
2022-12-31T00:01:31.494Z,7.68
2022-12-31T00:04:00.027Z,2.10
2022-12-31T00:06:31.478Z,4.93
2022-12-31T00:09:02.307Z,1.55
2022-12-31T00:11:31.408Z,1.92
2022-12-31T00:14:00.032Z,2.33
2022-12-31T00:16:36.702Z,2.80
2022-12-31T00:19:10.095Z,1.80
2022-12-31T00:21:38.997Z,1.70
2022-12-31T00:24:07.954Z,1.50
2022-12-31T00:26:37.196Z,1.67
2022-12-31T00:29:06.136Z,1.38
2022-12-31T00:31:37.476Z,2.22
2022-12-31T00:34:06.978Z,2.85
2022-12-31T00:36:38.307Z,1.23
2022-12-31T00:39:08.397Z,1.55
2022-12-31T00:41:37.500Z,2.60
2022-12-31T00:44:06.137Z,3.50
2022-12-31T00:49:02.907Z,2.30
2022-12-31T00:51:31.411Z,5.63
2022-12-31T00:53:59.953Z,3.38
2022-12-31T00:56:31.169Z,5.53
2022-12-31T00:59:00.284Z,2.77
2022-12-31T01:01:32.055Z,5.53
2022-12-31T01:04:08.270Z,1.70
2022-12-31T01:06:36.895Z,1.60
2022-12-31T01:09:06.515Z,3.00
2022-12-31T01:11:35.463Z,1.63
2022-12-31T01:14:24.011Z,1.17
2022-12-31T01:16:53.447Z,0.82
2022-12-31T01:19:27.640Z,1.25
2022-12-31T01:21:56.511Z,1.42
2022-12-31T01:24:25.251Z,0.80
2022-12-31T01:26:57.741Z,0.70
2022-12-31T01:29:26.635Z,1.02
2022-12-31T01:31:55.389Z,0.82
2022-12-31T01:34:23.865Z,1.00
2022-12-31T01:36:52.354Z,3.55
2022-12-31T01:39:20.790Z,0.70
2022-12-31T01:41:49.789Z,1.02
2022-12-31T01:44:26.956Z,0.77
2022-12-31T01:47:04.151Z,0.60
2022-12-31T01:49:38.865Z,0.90
2022-12-31T01:52:13.089Z,1.05
2022-12-31T01:54:47.544Z,0.70
2022-12-31T01:57:17.263Z,0.70
2022-12-31T01:59:46.081Z,6.93
2022-12-31T02:02:15.883Z,4.95
2022-12-31T02:04:44.603Z,1.00
2022-12-31T02:07:13.387Z,2.28
2022-12-31T02:09:42.551Z,1.35
2022-12-31T02:12:11.621Z,0.60
2022-12-31T02:14:43.908Z,1.02
2022-12-31T02:17:31.086Z,0.50
2022-12-31T02:20:19.352Z,0.57
2022-12-31T02:23:16.713Z,0.55
2022-12-31T02:26:30.732Z,1.77
2022-12-31T02:29:47.037Z,0.73
2022-12-31T02:32:21.826Z,0.65
2022-12-31T02:34:56.603Z,0.77
2022-12-31T02:37:29.969Z,0.70
2022-12-31T02:39:59.147Z,0.60
2022-12-31T02:42:27.636Z,0.80
2022-12-31T02:44:56.140Z,0.70
2022-12-31T02:47:38.517Z,1.02
2022-12-31T02:50:55.449Z,0.85
2022-12-31T02:53:49.755Z,0.80
2022-12-31T02:56:35.231Z,1.50
2022-12-31T02:59:30.434Z,0.88
2022-12-31T03:02:16.557Z,0.63
2022-12-31T03:04:55.541Z,0.75
2022-12-31T03:07:29.457Z,1.02
2022-12-31T03:09:59.087Z,0.90
2022-12-31T03:12:46.787Z,0.82
2022-12-31T03:15:22.319Z,2.75
2022-12-31T03:17:53.649Z,1.08
2022-12-31T03:21:01.830Z,0.80
2022-12-31T03:23:32.100Z,1.02
2022-12-31T03:26:01.712Z,1.08
2022-12-31T03:28:31.221Z,1.00
2022-12-31T03:31:01.638Z,0.52
2022-12-31T03:33:32.299Z,1.23
2022-12-31T03:36:04.282Z,1.05
2022-12-31T03:38:32.765Z,0.65
2022-12-31T03:41:01.433Z,0.90
2022-12-31T03:43:29.911Z,0.43
2022-12-31T03:45:59.894Z,0.60
2022-12-31T03:48:28.557Z,0.95
2022-12-31T03:50:57.021Z,0.47
2022-12-31T03:53:25.452Z,1.50
2022-12-31T03:55:54.264Z,1.73
2022-12-31T03:58:22.851Z,2.28
2022-12-31T04:00:51.423Z,1.88
2022-12-31T04:03:19.964Z,2.10
2022-12-31T04:05:56.054Z,1.38
2022-12-31T04:08:24.796Z,1.88
2022-12-31T04:10:53.318Z,2.03
2022-12-31T04:13:22.875Z,1.63
2022-12-31T04:15:52.079Z,1.30
2022-12-31T04:18:20.615Z,1.48
2022-12-31T04:20:48.993Z,1.45
2022-12-31T04:23:17.822Z,1.33
2022-12-31T04:25:46.428Z,1.85
2022-12-31T04:28:15.024Z,5.97
2022-12-31T04:30:43.664Z,2.47
2022-12-31T04:33:12.375Z,2.05
2022-12-31T04:35:40.905Z,1.52
2022-12-31T04:38:09.386Z,2.05
2022-12-31T04:40:57.865Z,8.55
2022-12-31T04:43:26.309Z,4.57
2022-12-31T04:45:54.874Z,5.68
2022-12-31T04:48:23.394Z,5.22
2022-12-31T04:50:51.829Z,3.05
2022-12-31T04:53:20.333Z,1.90
2022-12-31T04:55:48.828Z,1.52
2022-12-31T04:58:17.535Z,4.75
2022-12-31T05:00:49.653Z,10.52
2022-12-31T05:03:18.894Z,4.85
2022-12-31T05:05:48.102Z,8.60
2022-12-31T05:08:18.101Z,1.48
2022-12-31T05:10:48.956Z,1.70
2022-12-31T05:13:17.497Z,1.25
2022-12-31T05:15:47.276Z,5.70
2022-12-31T05:18:16.031Z,5.00
2022-12-31T05:20:45.042Z,2.15
2022-12-31T05:23:14.447Z,1.58
2022-12-31T05:25:44.850Z,1.65
2022-12-31T05:28:14.552Z,2.22
2022-12-31T05:30:44.903Z,1.45
2022-12-31T05:33:13.419Z,1.92
2022-12-31T05:35:43.891Z,10.05
2022-12-31T05:38:12.594Z,1.75
2022-12-31T05:40:41.068Z,2.75
2022-12-31T05:43:09.561Z,2.63
2022-12-31T05:45:37.980Z,1.95
2022-12-31T05:48:06.591Z,1.15
2022-12-31T05:50:35.052Z,1.75
2022-12-31T05:53:03.537Z,3.92
2022-12-31T05:55:31.944Z,2.58
2022-12-31T05:58:00.444Z,1.33
2022-12-31T06:00:28.938Z,3.30
2022-12-31T06:02:57.544Z,2.75
2022-12-31T06:05:26.546Z,1.27
2022-12-31T06:07:55.344Z,1.95
2022-12-31T06:10:23.733Z,2.53
2022-12-31T06:12:52.237Z,4.00
2022-12-31T06:15:20.770Z,1.55
2022-12-31T06:17:49.367Z,1.58
2022-12-31T06:20:17.905Z,2.53
2022-12-31T06:22:46.433Z,3.70
2022-12-31T06:25:15.048Z,4.15
2022-12-31T06:27:43.477Z,2.95
2022-12-31T06:30:12.555Z,2.47
2022-12-31T06:32:41.072Z,3.72
2022-12-31T06:35:10.005Z,1.88
2022-12-31T06:37:38.699Z,13.77
2022-12-31T06:40:07.920Z,2.65
2022-12-31T06:42:36.364Z,3.95
2022-12-31T06:45:05.405Z,2.58
2022-12-31T06:47:33.902Z,1.65
2022-12-31T06:50:02.331Z,1.23
2022-12-31T06:52:30.779Z,2.00
2022-12-31T06:54:59.769Z,3.05
2022-12-31T06:57:28.651Z,5.95
2022-12-31T06:59:57.333Z,1.63
2022-12-31T07:03:13.595Z,1.63
2022-12-31T07:05:49.533Z,3.83
2022-12-31T07:08:39.876Z,2.08
2022-12-31T07:11:18.400Z,2.30
2022-12-31T07:14:01.029Z,1.33
2022-12-31T07:16:43.692Z,1.90
2022-12-31T07:19:36.512Z,2.85
2022-12-31T07:22:09.352Z,1.00
2022-12-31T07:24:38.197Z,3.38
2022-12-31T07:27:28.545Z,3.35
2022-12-31T07:29:59.707Z,5.03
2022-12-31T07:32:56.184Z,2.97
2022-12-31T07:35:49.319Z,2.63
2022-12-31T07:38:34.331Z,4.32
2022-12-31T07:41:26.965Z,1.73
2022-12-31T07:44:24.835Z,1.67
2022-12-31T07:46:57.127Z,7.68
2022-12-31T07:49:27.748Z,2.65
2022-12-31T07:51:56.608Z,2.08
2022-12-31T07:54:25.196Z,4.28
2022-12-31T07:56:53.779Z,2.88
2022-12-31T07:59:59.101Z,12.70
2022-12-31T08:02:39.649Z,3.40
2022-12-31T08:05:46.630Z,2.67
2022-12-31T08:08:28.120Z,2.05
2022-12-31T08:11:23.877Z,5.22
2022-12-31T08:13:56.193Z,1.77
2022-12-31T08:16:25.065Z,2.90
2022-12-31T08:18:53.862Z,13.13
2022-12-31T08:21:44.640Z,2.05
2022-12-31T08:24:54.979Z,3.92
2022-12-31T08:28:02.244Z,2.17
2022-12-31T08:31:13.409Z,2.08
2022-12-31T08:33:55.132Z,2.38
2022-12-31T08:36:32.798Z,2.25
2022-12-31T08:39:31.682Z,5.68
2022-12-31T08:42:04.838Z,4.03
2022-12-31T08:44:59.260Z,2.83
2022-12-31T08:47:39.701Z,1.33
2022-12-31T08:50:14.765Z,4.03
2022-12-31T08:52:43.551Z,2.03
2022-12-31T08:55:17.713Z,5.80
2022-12-31T08:58:06.725Z,1.95
2022-12-31T09:00:36.693Z,8.00
2022-12-31T09:03:34.243Z,1.10
2022-12-31T09:06:25.359Z,7.97
2022-12-31T09:09:03.690Z,4.32
2022-12-31T09:11:57.287Z,2.40
2022-12-31T09:14:43.908Z,9.65
2022-12-31T09:17:18.390Z,5.10
2022-12-31T09:19:47.112Z,2.45
2022-12-31T09:22:16.835Z,3.08
2022-12-31T09:24:45.529Z,2.75
2022-12-31T09:27:25.609Z,4.75
2022-12-31T09:32:33.725Z,1.95
2022-12-31T09:35:41.270Z,1.80
2022-12-31T09:38:22.616Z,5.13
2022-12-31T09:41:04.183Z,6.13
2022-12-31T09:43:35.655Z,2.17
2022-12-31T09:46:25.919Z,9.07
2022-12-31T09:49:13.191Z,3.65
2022-12-31T09:51:49.080Z,1.95
2022-12-31T09:54:28.946Z,5.63
2022-12-31T09:57:21.927Z,2.65
2022-12-31T10:00:11.030Z,5.18
2022-12-31T10:03:10.553Z,2.67
2022-12-31T10:05:58.016Z,2.83
2022-12-31T10:08:48.333Z,3.78
2022-12-31T10:11:45.024Z,7.90
2022-12-31T10:14:47.124Z,10.48
2022-12-31T10:17:42.099Z,3.42
2022-12-31T10:20:24.250Z,9.25
2022-12-31T10:23:30.098Z,2.40
2022-12-31T10:26:16.421Z,11.32
2022-12-31T10:29:28.655Z,9.57
2022-12-31T10:32:15.259Z,4.15
2022-12-31T10:34:53.117Z,13.75
2022-12-31T10:37:53.442Z,2.17
2022-12-31T10:40:51.170Z,6.60
2022-12-31T10:43:58.680Z,18.55
2022-12-31T10:47:00.566Z,6.53
2022-12-31T10:49:42.231Z,7.57
2022-12-31T10:52:58.395Z,3.80
2022-12-31T10:55:56.503Z,6.82
2022-12-31T10:58:49.714Z,2.33
2022-12-31T11:01:30.224Z,7.85
2022-12-31T11:04:35.609Z,10.48
2022-12-31T11:07:19.818Z,5.72
2022-12-31T11:10:00.217Z,5.25
2022-12-31T11:12:28.649Z,5.20
2022-12-31T11:15:22.102Z,3.20
2022-12-31T11:18:23.253Z,17.48
2022-12-31T11:21:00.541Z,5.03
2022-12-31T11:23:47.813Z,7.22
2022-12-31T11:26:36.747Z,9.32
2022-12-31T11:29:08.341Z,10.52
2022-12-31T11:31:50.840Z,9.48
2022-12-31T11:34:22.359Z,10.85
2022-12-31T11:37:17.889Z,9.55
2022-12-31T11:39:52.347Z,17.85
2022-12-31T11:42:40.780Z,12.25
2022-12-31T11:45:40.790Z,7.65
2022-12-31T11:48:31.396Z,3.75
2022-12-31T11:51:12.551Z,8.80
2022-12-31T11:54:03.727Z,7.63
2022-12-31T11:56:38.532Z,5.90
2022-12-31T11:59:18.990Z,5.88
2022-12-31T12:02:16.315Z,13.98
2022-12-31T12:04:48.327Z,18.33
2022-12-31T12:09:46.284Z,7.65
2022-12-31T12:12:15.603Z,5.20
2022-12-31T12:14:46.988Z,11.27
2022-12-31T12:17:22.012Z,7.85
2022-12-31T12:19:55.019Z,9.45
2022-12-31T12:22:25.465Z,12.07
2022-12-31T12:25:04.790Z,3.67
2022-12-31T12:27:36.382Z,4.78
2022-12-31T12:30:17.842Z,7.25
2022-12-31T12:32:59.608Z,11.38
2022-12-31T12:35:33.854Z,7.90
2022-12-31T12:38:04.411Z,7.72
2022-12-31T12:40:34.717Z,13.05
2022-12-31T12:43:03.640Z,5.00
2022-12-31T12:45:51.878Z,9.13
2022-12-31T12:48:34.214Z,13.15
2022-12-31T12:51:16.466Z,5.40
2022-12-31T12:56:22.826Z,7.15
2022-12-31T12:59:17.343Z,14.85
2022-12-31T13:02:17.671Z,7.55
2022-12-31T13:05:11.490Z,6.57
2022-12-31T13:07:48.881Z,3.85
2022-12-31T13:10:41.584Z,6.40
2022-12-31T13:13:26.204Z,7.07
2022-12-31T13:16:07.178Z,11.05
2022-12-31T13:19:06.652Z,6.93
2022-12-31T13:21:44.450Z,6.70
2022-12-31T13:24:51.144Z,6.82
2022-12-31T13:27:37.503Z,10.70
2022-12-31T13:30:21.665Z,10.60
2022-12-31T13:33:00.325Z,10.50
2022-12-31T13:35:57.964Z,5.20
2022-12-31T13:38:34.659Z,8.77
2022-12-31T13:41:05.708Z,10.02
2022-12-31T13:44:04.994Z,18.90
2022-12-31T13:47:06.115Z,6.68
2022-12-31T13:49:44.391Z,8.65
2022-12-31T13:52:30.701Z,11.52
2022-12-31T13:55:40.018Z,6.40
2022-12-31T13:58:31.425Z,10.23
2022-12-31T14:01:22.229Z,8.13
2022-12-31T14:03:57.900Z,13.15
2022-12-31T14:06:49.314Z,7.35
2022-12-31T14:09:23.180Z,14.20
2022-12-31T14:12:13.673Z,17.00
2022-12-31T14:14:51.313Z,9.52
2022-12-31T14:17:45.417Z,19.45
2022-12-31T14:20:22.887Z,23.17
2022-12-31T14:23:11.071Z,9.02
2022-12-31T14:26:07.598Z,8.95
2022-12-31T14:28:47.020Z,12.02
2022-12-31T14:31:51.795Z,33.05
2022-12-31T14:34:47.510Z,20.25
2022-12-31T14:37:33.509Z,14.82
2022-12-31T14:40:26.950Z,7.55
2022-12-31T14:43:14.354Z,19.73
2022-12-31T14:46:04.185Z,4.72
2022-12-31T14:48:56.335Z,7.93
2022-12-31T14:51:30.881Z,11.63
2022-12-31T14:53:59.436Z,8.10
2022-12-31T14:56:42.505Z,5.18
2022-12-31T14:59:35.687Z,7.70
2022-12-31T15:02:26.662Z,9.43
2022-12-31T15:05:29.263Z,16.27
2022-12-31T15:08:24.852Z,6.22
2022-12-31T15:11:19.216Z,16.08
2022-12-31T15:14:09.296Z,7.05
2022-12-31T15:17:12.447Z,5.57
2022-12-31T15:19:43.579Z,18.52
2022-12-31T15:22:52.242Z,6.78
2022-12-31T15:25:40.102Z,8.07
2022-12-31T15:28:32.069Z,7.70
2022-12-31T15:31:17.479Z,3.50
2022-12-31T15:33:58.303Z,6.43
2022-12-31T15:36:31.817Z,3.05
2022-12-31T15:39:25.469Z,9.48
2022-12-31T15:44:54.967Z,36.53
2022-12-31T15:47:41.534Z,10.13
2022-12-31T15:50:18.832Z,7.55
2022-12-31T15:52:53.933Z,7.63
2022-12-31T15:55:41.554Z,5.55
2022-12-31T15:58:23.856Z,13.63
2022-12-31T16:00:55.222Z,12.23
2022-12-31T16:03:26.848Z,4.97
2022-12-31T16:06:00.954Z,7.13
2022-12-31T16:08:33.920Z,10.00
2022-12-31T16:11:07.362Z,6.57
2022-12-31T16:13:40.821Z,13.25
2022-12-31T16:16:24.313Z,6.78
2022-12-31T16:18:53.413Z,15.45
2022-12-31T16:21:27.027Z,9.68
2022-12-31T16:23:58.027Z,6.68
2022-12-31T16:26:42.284Z,13.93
2022-12-31T16:29:16.134Z,16.55
2022-12-31T16:31:46.628Z,5.68
2022-12-31T16:34:17.750Z,8.15
2022-12-31T16:37:01.084Z,4.67
2022-12-31T16:39:59.358Z,8.02
2022-12-31T16:42:28.669Z,4.38
2022-12-31T16:44:57.512Z,5.07
2022-12-31T16:47:35.937Z,12.70
2022-12-31T16:50:15.609Z,11.23
2022-12-31T16:52:47.061Z,16.92
2022-12-31T16:55:19.212Z,14.23
2022-12-31T16:57:55.672Z,15.82
2022-12-31T17:00:25.384Z,7.32
2022-12-31T17:03:02.586Z,14.25
2022-12-31T17:05:32.510Z,7.43
2022-12-31T17:08:27.035Z,12.63
2022-12-31T17:10:56.507Z,21.52
2022-12-31T17:13:31.934Z,6.10
2022-12-31T17:16:01.187Z,6.75
2022-12-31T17:18:38.516Z,15.48
2022-12-31T17:21:09.912Z,12.82
2022-12-31T17:23:42.425Z,12.57
2022-12-31T17:26:21.999Z,15.00
2022-12-31T17:28:53.521Z,7.43
2022-12-31T17:31:38.217Z,7.50
2022-12-31T17:34:12.881Z,8.15
2022-12-31T17:36:54.397Z,6.18
2022-12-31T17:39:25.460Z,13.13
2022-12-31T17:41:57.810Z,7.63
2022-12-31T17:44:28.816Z,8.82
2022-12-31T17:46:57.940Z,9.60
2022-12-31T17:49:30.904Z,9.13
2022-12-31T17:51:59.407Z,5.15
2022-12-31T17:54:27.917Z,8.10
2022-12-31T17:56:57.615Z,6.15
2022-12-31T17:59:29.758Z,16.00
2022-12-31T18:02:01.148Z,16.65
2022-12-31T18:04:30.753Z,4.57
2022-12-31T18:06:59.178Z,11.48
2022-12-31T18:09:27.650Z,5.40
2022-12-31T18:12:01.363Z,11.80
2022-12-31T18:14:30.208Z,6.95
2022-12-31T18:16:58.736Z,10.43
2022-12-31T18:22:16.211Z,8.50
2022-12-31T18:24:44.766Z,13.57
2022-12-31T18:27:18.487Z,18.10
2022-12-31T18:29:47.357Z,19.40
2022-12-31T18:32:37.399Z,10.05
2022-12-31T18:35:26.717Z,8.52
2022-12-31T18:38:03.443Z,12.30
2022-12-31T18:40:32.964Z,8.00
2022-12-31T18:43:05.134Z,10.38
2022-12-31T18:45:33.962Z,9.38
2022-12-31T18:48:02.644Z,10.18
2022-12-31T18:50:31.275Z,17.30
2022-12-31T18:52:59.775Z,7.35
2022-12-31T18:55:36.235Z,12.85
2022-12-31T18:58:05.328Z,19.77
2022-12-31T19:00:35.645Z,11.80
2022-12-31T19:03:05.577Z,9.63
2022-12-31T19:05:37.508Z,8.85
2022-12-31T19:08:05.976Z,21.42
2022-12-31T19:10:34.982Z,13.65
2022-12-31T19:13:03.763Z,6.93
2022-12-31T19:15:53.205Z,5.50
2022-12-31T19:18:21.756Z,42.83
2022-12-31T19:20:51.759Z,12.70
2022-12-31T19:23:22.354Z,10.63
2022-12-31T19:25:50.983Z,12.13
2022-12-31T19:28:23.118Z,26.50
2022-12-31T19:33:21.558Z,8.95
2022-12-31T19:35:50.110Z,18.13
2022-12-31T19:38:26.889Z,20.23
2022-12-31T19:40:56.312Z,12.88
2022-12-31T19:43:26.022Z,7.97
2022-12-31T19:45:54.476Z,12.50
2022-12-31T19:48:32.328Z,13.93
2022-12-31T19:51:01.151Z,6.65
2022-12-31T19:53:29.728Z,11.40
2022-12-31T19:55:58.238Z,10.48
2022-12-31T19:58:27.649Z,18.42
2022-12-31T20:01:02.650Z,5.60
2022-12-31T20:03:33.160Z,15.95
2022-12-31T20:06:09.924Z,11.52
2022-12-31T20:08:39.875Z,9.77
2022-12-31T20:11:14.053Z,11.70
2022-12-31T20:13:43.641Z,13.98
2022-12-31T20:16:15.252Z,7.75
2022-12-31T20:18:45.719Z,9.85
2022-12-31T20:21:19.256Z,15.13
2022-12-31T20:23:49.632Z,13.20
2022-12-31T20:26:20.307Z,21.70
2022-12-31T20:28:49.068Z,13.73
2022-12-31T20:31:20.777Z,9.23
2022-12-31T20:33:49.521Z,15.00
2022-12-31T20:36:18.132Z,20.58
2022-12-31T20:38:47.088Z,13.95
2022-12-31T20:41:20.847Z,4.90
2022-12-31T20:43:50.887Z,11.82
2022-12-31T20:46:25.577Z,9.60
2022-12-31T20:48:56.106Z,7.75
2022-12-31T20:51:26.163Z,12.40
2022-12-31T20:54:00.238Z,33.15
2022-12-31T20:56:31.115Z,24.73
2022-12-31T20:59:00.340Z,7.53
2022-12-31T21:01:41.740Z,14.23
2022-12-31T21:04:19.145Z,22.10
2022-12-31T21:06:49.814Z,9.10
2022-12-31T21:09:18.321Z,12.77
2022-12-31T21:12:05.151Z,25.25
2022-12-31T21:14:33.774Z,4.93
2022-12-31T21:17:02.302Z,7.38
2022-12-31T21:19:30.879Z,30.33
2022-12-31T21:21:59.440Z,9.88
2022-12-31T21:24:27.845Z,10.38
2022-12-31T21:26:56.381Z,9.90
2022-12-31T21:29:25.695Z,18.00
2022-12-31T21:31:55.324Z,14.65
2022-12-31T21:34:23.796Z,13.73
2022-12-31T21:36:52.219Z,10.48
2022-12-31T21:39:20.763Z,12.63
2022-12-31T21:41:52.212Z,5.25
2022-12-31T21:44:25.895Z,10.40
2022-12-31T21:47:39.805Z,12.55
2022-12-31T21:50:09.882Z,15.60
2022-12-31T21:52:39.407Z,9.20
2022-12-31T21:55:26.854Z,11.95
2022-12-31T22:01:03.395Z,7.05
2022-12-31T22:03:32.235Z,18.80
2022-12-31T22:06:12.378Z,16.05
2022-12-31T22:08:42.834Z,16.15
2022-12-31T22:11:12.673Z,10.63
2022-12-31T22:13:41.458Z,11.32
2022-12-31T22:16:10.482Z,17.35
2022-12-31T22:18:40.736Z,10.10
2022-12-31T22:21:18.390Z,10.63
2022-12-31T22:23:49.879Z,15.25
2022-12-31T22:26:20.417Z,7.03
2022-12-31T22:28:49.940Z,9.35
2022-12-31T22:31:24.450Z,9.02
2022-12-31T22:33:53.541Z,25.58
2022-12-31T22:36:23.542Z,19.73
2022-12-31T22:38:55.859Z,9.35
2022-12-31T22:41:26.038Z,13.70
2022-12-31T22:44:03.189Z,9.98
2022-12-31T22:46:33.561Z,5.20
2022-12-31T22:49:04.132Z,9.45
2022-12-31T22:51:56.959Z,9.82
2022-12-31T22:54:21.453Z,25.17
2022-12-31T22:56:49.859Z,11.48
2022-12-31T22:59:19.294Z,6.07
2022-12-31T23:01:47.857Z,19.73
2022-12-31T23:04:16.670Z,15.20
2022-12-31T23:06:45.255Z,44.28
2022-12-31T23:09:33.887Z,99.05
2022-12-31T23:12:04.157Z,43.22
2022-12-31T23:14:51.490Z,63.42
2022-12-31T23:17:42.518Z,81.53
2022-12-31T23:20:39.566Z,87.90
2022-12-31T23:23:12.523Z,45.33
2022-12-31T23:25:45.742Z,46.58
2022-12-31T23:28:18.816Z,40.95
2022-12-31T23:30:47.423Z,48.67
2022-12-31T23:33:21.027Z,60.60
2022-12-31T23:35:49.638Z,37.42
2022-12-31T23:38:18.716Z,33.80
2022-12-31T23:40:47.350Z,35.53
2022-12-31T23:43:21.451Z,35.65
2022-12-31T23:45:50.962Z,37.78
2022-12-31T23:48:20.014Z,31.17
2022-12-31T23:50:53.607Z,35.83
2022-12-31T23:53:24.013Z,29.13
2022-12-31T23:55:53.152Z,16.88
2022-12-31T23:58:22.406Z,33.50
